Time;durP1;ratioP1;P1;durP2;ratioP2;P2;SDS_P1;SDS_P2;PMS_P1;PMS_P2;Temp;Humidity;BMP_temperature;BMP_pressure;BME280_temperature;BME280_humidity;BME280_pressure;Samples;Min_cycle;Max_cycle;Signal;HPM_P1;HPM_P2
2022/04/20 00:04:49;;;;;;;66.70;62.60;;;;;;;9.84;100.00;101748.71;1826200;76;86751;-75
2022/04/20 00:10:34;;;;;;;68.73;64.23;;;;;;;9.86;100.00;101748.47;1864871;75;85940;-74
2022/04/20 00:16:18;;;;;;;65.93;61.63;;;;;;;9.80;100.00;101750.88;1919634;72;86812;-75
2022/04/20 00:22:02;;;;;;;68.97;64.37;;;;;;;9.68;100.00;101746.84;1984644;71;39663;-75
2022/04/20 00:27:46;;;;;;;72.23;67.53;;;;;;;9.65;100.00;101711.85;1808283;78;86522;-74
2022/04/20 00:33:30;;;;;;;68.80;64.27;;;;;;;9.70;100.00;101734.95;1872310;75;86193;-74
2022/04/20 00:39:14;;;;;;;70.10;65.17;;;;;;;9.47;100.00;101736.03;1946557;71;39477;-75
2022/04/20 00:44:59;;;;;;;71.67;66.83;;;;;;;9.46;100.00;101741.28;1836724;76;87133;-76
2022/04/20 00:50:45;;;;;;;70.97;66.27;;;;;;;9.37;100.00;101741.42;1800306;78;86290;-76
2022/04/20 00:56:30;;;;;;;71.93;66.80;;;;;;;9.47;100.00;101731.03;1873160;74;86449;-75
2022/04/20 01:02:15;;;;;;;74.07;68.83;;;;;;;9.65;100.00;101729.34;1981412;71;39654;-75
2022/04/20 01:07:59;;;;;;;75.53;70.20;;;;;;;9.60;100.00;101725.10;1840370;76;86171;-74
2022/04/20 01:13:42;;;;;;;73.93;68.73;;;;;;;9.57;100.00;101720.92;1891062;73;86832;-75
2022/04/20 01:19:33;;;;;;;75.87;70.57;;;;;;;9.48;100.00;101720.23;1873163;75;86328;-75
2022/04/20 01:25:17;;;;;;;76.17;70.67;;;;;;;9.50;100.00;101717.48;1924131;73;86325;-75
2022/04/20 01:31:01;;;;;;;78.27;72.57;;;;;;;9.44;100.00;101717.14;1894661;74;86227;-75
2022/04/20 01:36:44;;;;;;;76.33;70.87;;;;;;;9.26;100.00;101727.68;1808201;78;86167;-74
2022/04/20 01:42:28;;;;;;;77.73;72.07;;;;;;;8.94;100.00;101732.45;1866006;75;86063;-75
2022/04/20 01:48:13;;;;;;;81.10;75.13;;;;;;;9.05;100.00;101729.31;1983792;71;39587;-74
2022/04/20 01:53:57;;;;;;;79.87;73.73;;;;;;;8.94;100.00;101728.30;1825828;76;86334;-74
2022/04/20 01:59:40;;;;;;;81.03;74.67;;;;;;;8.89;100.00;101728.24;1898916;74;87194;-75
2022/04/20 02:05:25;;;;;;;79.97;73.77;;;;;;;8.91;100.00;101731.59;1807434;77;86316;-75
2022/04/20 02:11:09;;;;;;;81.47;75.03;;;;;;;8.76;100.00;101734.13;1985289;71;39769;-75
2022/04/20 02:16:53;;;;;;;82.63;76.47;;;;;;;8.71;100.00;101727.11;1829694;76;86122;-75
2022/04/20 02:22:37;;;;;;;82.10;75.83;;;;;;;8.78;100.00;101729.15;1869444;75;85524;-76
2022/04/20 02:28:23;;;;;;;81.03;74.57;;;;;;;8.79;100.00;101721.69;1911160;72;86011;-74
2022/04/20 02:34:07;;;;;;;80.87;74.57;;;;;;;8.85;100.00;101714.61;1982266;71;39508;-74
2022/04/20 02:39:51;;;;;;;81.60;75.40;;;;;;;8.78;100.00;101717.23;1830308;76;86391;-74
2022/04/20 02:45:34;;;;;;;81.40;75.10;;;;;;;8.60;100.00;101721.11;1891186;75;85574;-76
2022/04/20 02:51:19;;;;;;;84.00;77.60;;;;;;;8.54;100.00;101713.80;1923307;73;86216;-75
2022/04/20 02:57:02;;;;;;;83.70;76.90;;;;;;;8.62;100.00;101718.91;1950800;72;39594;-75
2022/04/20 03:02:45;;;;;;;83.60;77.13;;;;;;;8.61;100.00;101711.69;1800354;78;86041;-75
2022/04/20 03:08:30;;;;;;;87.03;80.23;;;;;;;8.55;100.00;101703.86;1806031;76;86085;-75
2022/04/20 03:14:14;;;;;;;86.27;79.63;;;;;;;8.63;100.00;101710.91;1979165;71;39515;-75
2022/04/20 03:19:58;;;;;;;84.60;77.90;;;;;;;8.45;100.00;101700.06;1825179;75;86199;-74
2022/04/20 03:25:43;;;;;;;82.63;76.13;;;;;;;8.38;100.00;101715.47;1827431;76;86602;-75
2022/04/20 03:31:27;;;;;;;82.70;75.77;;;;;;;8.27;100.00;101709.40;1873088;75;86412;-74
2022/04/20 03:37:12;;;;;;;83.10;76.10;;;;;;;8.33;100.00;101708.45;1985167;71;39451;-74
2022/04/20 03:42:57;;;;;;;82.93;76.00;;;;;;;8.40;100.00;101717.42;1828275;76;86697;-74
2022/04/20 03:48:42;;;;;;;84.40;77.47;;;;;;;8.27;100.00;101717.70;1870949;73;85585;-73
2022/04/20 03:54:26;;;;;;;86.63;79.07;;;;;;;8.40;100.00;101717.97;1807767;77;86319;-76
2022/04/20 04:00:12;;;;;;;87.90;80.63;;;;;;;8.59;100.00;101709.73;1975551;71;39500;-75
2022/04/20 04:05:56;;;;;;;86.90;79.60;;;;;;;8.69;100.00;101705.73;1834538;76;86797;-76
2022/04/20 04:11:43;;;;;;;88.50;80.83;;;;;;;8.71;100.00;101703.56;1832278;77;86375;-74
2022/04/20 04:17:27;;;;;;;89.50;82.30;;;;;;;8.72;100.00;101707.17;1856333;76;86573;-75
2022/04/20 04:23:11;;;;;;;91.33;83.63;;;;;;;8.88;100.00;101702.16;1982596;70;39626;-74
2022/04/20 04:28:56;;;;;;;90.07;82.07;;;;;;;9.08;100.00;101708.00;1980760;70;85543;-73
2022/04/20 04:34:40;;;;;;;88.53;80.93;;;;;;;9.20;100.00;101711.51;1870164;75;85833;-74
2022/04/20 04:40:24;;;;;;;88.63;80.77;;;;;;;9.22;100.00;101714.03;1860963;76;86701;-75
2022/04/20 04:52:17;;;;;;;86.97;79.40;;;;;;;9.41;100.00;101719.59;1900588;72;86313;-75
2022/04/20 04:58:00;;;;;;;91.27;83.37;;;;;;;9.54;100.00;101717.25;1809162;78;86339;-75
2022/04/20 05:03:44;;;;;;;89.20;81.27;;;;;;;9.55;100.00;101722.26;1809114;76;86801;-75
2022/04/20 05:09:29;;;;;;;89.50;81.97;;;;;;;9.49;100.00;101722.77;1866651;75;86480;-74
2022/04/20 05:15:14;;;;;;;87.57;80.00;;;;;;;9.50;100.00;101734.13;1982077;71;39672;-75
2022/04/20 05:20:58;;;;;;;88.83;81.27;;;;;;;9.65;100.00;101747.37;1854949;76;85412;-75
2022/04/20 05:26:41;;;;;;;89.23;81.33;;;;;;;9.76;100.00;101758.03;1839719;76;86382;-75
2022/04/20 05:32:25;;;;;;;89.43;81.97;;;;;;;9.89;100.00;101746.55;1808769;77;86845;-75
2022/04/20 05:44:13;;;;;;;88.80;81.20;;;;;;;9.81;100.00;101748.39;1939080;71;39595;-74
2022/04/20 05:49:57;;;;;;;87.40;79.70;;;;;;;9.78;100.00;101746.14;1824924;76;86461;-75
2022/04/20 05:55:41;;;;;;;92.80;84.73;;;;;;;9.90;100.00;101753.23;1891000;74;85473;-74
2022/04/20 06:01:27;;;;;;;91.73;83.97;;;;;;;10.02;100.00;101760.88;1858015;76;86854;-76
2022/04/20 06:07:12;;;;;;;97.33;89.33;;;;;;;10.04;100.00;101767.56;1982591;71;39524;-74
2022/04/20 06:12:56;;;;;;;93.97;86.20;;;;;;;9.98;100.00;101756.10;1849723;76;86288;-75
2022/04/20 06:18:40;;;;;;;93.40;86.10;;;;;;;10.02;100.00;101762.81;1896935;73;86820;-75
2022/04/20 06:24:24;;;;;;;91.83;84.60;;;;;;;10.04;100.00;101760.62;1798020;77;86879;-74
2022/04/20 06:30:11;;;;;;;91.57;84.13;;;;;;;10.10;100.00;101746.27;1976740;71;39815;-74
2022/04/20 06:35:57;;;;;;;89.70;82.50;;;;;;;10.27;100.00;101743.69;1892708;74;86338;-74
2022/04/20 06:41:41;;;;;;;89.20;82.40;;;;;;;10.36;100.00;101743.52;1886520;73;86066;-74
2022/04/20 06:47:27;;;;;;;90.87;83.40;;;;;;;10.50;100.00;101730.89;1805348;77;86368;-76
2022/04/20 06:59:11;;;;;;;88.57;81.67;;;;;;;10.68;100.00;101737.16;1973208;71;39582;-73
2022/04/20 07:04:55;;;;;;;88.37;81.57;;;;;;;10.83;100.00;101721.98;1948659;72;86007;-74
2022/04/20 07:10:40;;;;;;;88.00;81.40;;;;;;;10.89;100.00;101718.16;1887852;74;86649;-76
2022/04/20 07:16:24;;;;;;;83.43;77.03;;;;;;;11.29;100.00;101713.44;1805763;77;85529;-77
2022/04/20 07:22:09;;;;;;;81.97;75.53;;;;;;;11.62;100.00;101698.30;1985092;71;39705;-75
2022/04/20 07:27:56;;;;;;;80.33;74.50;;;;;;;11.94;100.00;101689.84;1882556;74;86597;-77
2022/04/20 07:33:41;;;;;;;77.00;71.67;;;;;;;12.25;100.00;101698.52;1891531;73;86815;-75
2022/04/20 07:39:25;;;;;;;77.27;71.97;;;;;;;12.07;100.00;101693.47;1874661;75;86559;-76
2022/04/20 07:45:11;;;;;;;75.87;70.87;;;;;;;12.30;100.00;101688.23;1969805;71;39649;-76
2022/04/20 07:50:55;;;;;;;76.40;71.20;;;;;;;12.09;100.00;101698.22;1982401;72;85401;-75
2022/04/20 07:56:39;;;;;;;75.00;69.87;;;;;;;12.55;100.00;101693.55;1889178;74;86440;-76
2022/04/20 08:02:23;;;;;;;70.80;65.80;;;;;;;12.79;100.00;101684.92;1909470;72;86446;-75
2022/04/20 08:08:10;;;;;;;68.97;64.33;;;;;;;12.94;100.00;101684.90;1985251;71;39527;-76
2022/04/20 08:14:13;;;;;;;63.83;58.93;;;;;;;13.39;100.00;101685.96;1828290;76;86240;-74
2022/04/20 08:19:59;;;;;;;62.60;58.40;;;;;;;13.70;100.00;101669.35;1830633;76;86147;-72
2022/04/20 08:25:44;;;;;;;63.27;58.93;;;;;;;13.88;100.00;101668.71;1808697;78;86358;-74
2022/04/20 08:31:29;;;;;;;56.60;52.50;;;;;;;14.07;100.00;101661.36;1863619;75;86165;-74
2022/04/20 08:37:13;;;;;;;56.63;52.40;;;;;;;14.28;100.00;101670.44;1974295;71;39629;-72
2022/04/20 08:43:01;;;;;;;52.77;49.07;;;;;;;14.29;100.00;101668.48;1832696;76;86765;-73
2022/04/20 08:48:45;;;;;;;56.73;52.63;;;;;;;14.39;100.00;101668.41;1808972;78;86264;-75
2022/04/20 08:54:29;;;;;;;46.63;43.53;;;;;;;14.69;100.00;101663.98;1803825;77;86357;-72
2022/04/20 09:00:20;;;;;;;47.60;44.43;;;;;;;14.64;100.00;101662.62;1954896;71;39561;-72
2022/04/20 09:06:05;;;;;;;46.13;42.80;;;;;;;14.78;100.00;101658.59;1986174;71;39601;-72
2022/04/20 09:11:51;;;;;;;49.00;45.60;;;;;;;14.93;100.00;101652.86;1848338;76;86295;-75
2022/04/20 09:17:42;;;;;;;42.50;39.67;;;;;;;15.12;100.00;101646.77;1885473;74;86956;-77
2022/04/20 09:23:28;;;;;;;39.33;36.63;;;;;;;15.57;100.00;101646.84;1863409;74;85896;-72
2022/04/20 09:29:14;;;;;;;41.43;38.63;;;;;;;15.43;100.00;101642.50;1984463;71;40232;-74
2022/04/20 09:35:00;;;;;;;38.37;35.83;;;;;;;15.51;100.00;101638.80;1838240;76;86208;-75
2022/04/20 09:40:44;;;;;;;37.60;34.97;;;;;;;15.65;100.00;101634.98;1808767;78;86227;-74
2022/04/20 09:52:54;;;;;;;36.43;34.00;;;;;;;15.75;100.00;101614.38;1832536;76;86338;-73
2022/04/20 09:58:46;;;;;;;31.83;29.53;;;;;;;16.09;100.00;101610.79;1794573;78;86633;-76
2022/04/20 10:04:45;;;;;;;27.83;25.97;;;;;;;16.44;100.00;101602.38;1805776;77;86601;-73
2022/04/20 10:10:29;;;;;;;24.40;22.60;;;;;;;16.51;100.00;101589.38;1869698;76;86813;-74
2022/04/20 10:16:14;;;;;;;21.67;19.97;;;;;;;16.44;100.00;101584.72;1981201;71;39547;-75
2022/04/20 10:22:02;;;;;;;20.57;19.00;;;;;;;16.68;100.00;101579.28;1812510;77;87041;-73
2022/04/20 10:27:59;;;;;;;19.80;18.40;;;;;;;16.94;100.00;101568.41;1882190;74;86306;-74
2022/04/20 10:30:33;;;;;;;18.63;17.17;;;;;;;16.93;100.00;101572.34;1836803;76;939003;-73
2022/04/20 10:36:29;;;;;;;17.83;16.47;;;;;;;16.92;100.00;101572.08;1923549;72;85479;-74
2022/04/20 10:42:33;;;;;;;14.80;13.70;;;;;;;17.58;100.00;101553.89;1891674;75;85420;-74
2022/04/20 10:48:19;;;;;;;14.47;13.40;;;;;;;17.53;100.00;101543.57;1913498;73;85280;-74
2022/04/20 10:54:29;;;;;;;14.43;13.50;;;;;;;17.65;100.00;101543.05;1807323;77;86633;-75
2022/04/20 11:04:06;;;;;;;13.93;13.03;;;;;;;17.93;100.00;101538.16;1876719;74;86364;-73
2022/04/20 11:07:12;;;;;;;13.60;12.57;;;;;;;17.89;100.00;101536.56;1834799;76;937027;-72
2022/04/20 11:19:35;;;;;;;13.50;12.60;;;;;;;17.14;100.00;101538.52;1845466;76;86226;-76
2022/04/20 11:25:24;;;;;;;12.60;11.90;;;;;;;17.26;100.00;101527.58;1930858;71;86485;-75
2022/04/20 11:34:24;;;;;;;14.27;13.30;;;;;;;17.38;100.00;101524.80;1906518;74;86661;-77
2022/04/20 11:36:56;;;;;;;13.53;12.63;;;;;;;17.45;100.00;101521.01;1832198;75;938989;-76
2022/04/20 11:42:41;;;;;;;13.97;13.00;;;;;;;17.86;100.00;101504.88;1882732;74;86442;-77
2022/04/20 11:48:27;;;;;;;12.87;11.97;;;;;;;17.80;100.00;101502.53;1873932;75;86706;-75
2022/04/20 11:54:15;;;;;;;12.93;12.13;;;;;;;17.60;100.00;101484.16;1945406;71;40218;-73
2022/04/20 12:00:00;;;;;;;12.30;11.60;;;;;;;17.69;100.00;101479.45;1840177;76;86549;-76
2022/04/20 12:05:45;;;;;;;12.10;11.40;;;;;;;17.86;100.00;101489.42;1832019;76;86243;-74
2022/04/20 12:11:33;;;;;;;12.93;12.10;;;;;;;18.08;100.00;101478.19;1808262;77;86270;-73
2022/04/20 12:17:20;;;;;;;12.63;11.73;;;;;;;18.36;100.00;101476.03;1908624;72;86239;-76
2022/04/20 12:23:09;;;;;;;12.43;11.73;;;;;;;18.75;100.00;101492.14;1982755;71;40487;-73
2022/04/20 12:28:59;;;;;;;12.33;11.50;;;;;;;18.90;100.00;101485.26;1845278;75;86164;-77
2022/04/20 12:34:55;;;;;;;12.93;12.07;;;;;;;18.90;100.00;101493.13;1804736;78;86382;-75
2022/04/20 12:40:41;;;;;;;12.13;11.43;;;;;;;18.84;100.00;101491.61;1870459;75;86674;-74
2022/04/20 12:46:34;;;;;;;12.77;12.07;;;;;;;18.77;96.95;101487.03;1872869;75;86006;-74
2022/04/20 12:52:19;;;;;;;12.80;12.10;;;;;;;18.64;98.83;101487.97;1926348;71;86537;-74
2022/04/20 13:04:20;;;;;;;18.17;17.37;;;;;;;18.83;100.00;101461.79;1818314;77;938825;-74
2022/04/20 13:10:06;;;;;;;15.00;13.97;;;;;;;18.83;100.00;101460.38;1979484;70;39578;-72
2022/04/20 13:12:48;;;;;;;15.17;14.10;;;;;;;18.79;100.00;101460.78;1907565;73;936842;-74
2022/04/20 13:18:34;;;;;;;17.03;16.13;;;;;;;18.88;100.00;101453.20;1891516;73;86758;-74
2022/04/20 13:27:54;;;;;;;18.07;17.13;;;;;;;18.89;100.00;101446.99;1922146;73;86572;-73
2022/04/20 13:30:07;;;;;;;13.90;13.00;;;;;;;18.95;100.00;101438.66;1926810;71;39549;-73
2022/04/20 13:35:56;;;;;;;13.87;13.00;;;;;;;18.87;100.00;101436.05;1845841;76;86444;-73
2022/04/20 13:41:39;;;;;;;14.23;13.30;;;;;;;18.91;99.13;101441.88;1881670;73;85449;-75
2022/04/20 13:47:24;;;;;;;13.40;12.50;;;;;;;18.88;100.00;101434.06;1809064;77;86380;-73
2022/04/20 13:53:10;;;;;;;14.10;13.30;;;;;;;18.98;100.00;101428.14;1983328;71;39535;-76
2022/04/20 13:58:53;;;;;;;13.43;12.73;;;;;;;19.00;98.40;101428.05;1821023;76;86479;-73
2022/04/20 14:04:37;;;;;;;14.77;13.97;;;;;;;18.81;92.31;101425.28;1879108;74;86759;-75
2022/04/20 14:10:21;;;;;;;13.77;13.07;;;;;;;18.93;97.08;101424.06;1912373;73;86582;-74
2022/04/20 14:16:06;;;;;;;14.00;13.10;;;;;;;19.02;92.59;101414.49;1985924;71;39496;-75
2022/04/20 14:21:51;;;;;;;13.83;13.00;;;;;;;18.98;90.86;101410.67;1853167;76;86982;-76
2022/04/20 14:33:37;;;;;;;14.17;13.27;;;;;;;18.97;96.35;101410.99;1882996;73;86424;-75
2022/04/20 14:39:22;;;;;;;14.60;13.70;;;;;;;19.01;97.24;101419.87;1902918;72;86241;-73
2022/04/20 14:45:08;;;;;;;15.10;14.27;;;;;;;18.96;100.00;101418.61;1938704;71;40456;-74
2022/04/20 14:50:52;;;;;;;14.63;13.50;;;;;;;18.57;96.99;101411.03;1848319;76;86378;-74
2022/04/20 14:56:37;;;;;;;15.10;14.10;;;;;;;18.26;97.57;101415.85;1903877;73;86256;-75
2022/04/20 15:02:19;;;;;;;15.50;14.40;;;;;;;18.16;100.00;101426.80;1906141;72;86765;-74
2022/04/20 15:08:05;;;;;;;15.33;14.33;;;;;;;18.14;99.15;101419.24;1978960;71;39822;-75
2022/04/20 15:13:49;;;;;;;13.87;12.97;;;;;;;18.13;99.53;101414.80;1882096;74;85448;-74
2022/04/20 15:19:34;;;;;;;14.53;13.60;;;;;;;17.83;98.00;101423.19;1884914;74;85922;-77
2022/04/20 15:25:18;;;;;;;14.37;13.40;;;;;;;17.82;100.00;101411.69;1920512;74;85595;-80
2022/04/20 15:31:05;;;;;;;14.00;13.10;;;;;;;18.08;100.00;101408.47;1967951;71;39610;-74
2022/04/20 15:36:52;;;;;;;15.13;14.20;;;;;;;18.03;100.00;101405.78;1836716;76;86253;-75
2022/04/20 15:42:38;;;;;;;14.83;13.90;;;;;;;18.33;100.00;101392.87;1868284;75;85404;-77
2022/04/20 15:48:24;;;;;;;14.33;13.37;;;;;;;18.39;100.00;101391.02;1807866;77;86299;-74
2022/04/20 15:54:08;;;;;;;15.07;14.07;;;;;;;18.30;99.08;101395.77;1955397;71;39598;-74
2022/04/20 16:05:57;;;;;;;14.80;13.80;;;;;;;18.17;100.00;101394.72;1851486;76;86738;-74
2022/04/20 16:11:42;;;;;;;14.90;13.90;;;;;;;18.03;99.13;101384.70;1873947;74;86458;-76
2022/04/20 16:17:28;;;;;;;14.07;13.17;;;;;;;18.14;100.00;101381.28;1858134;76;85290;-76
2022/04/20 16:23:13;;;;;;;14.07;13.00;;;;;;;17.93;99.50;101384.96;1982358;71;39969;-73
2022/04/20 16:28:57;;;;;;;14.17;13.27;;;;;;;17.73;100.00;101384.93;1849246;76;86291;-77
2022/04/20 16:34:41;;;;;;;13.90;12.90;;;;;;;17.66;100.00;101391.59;1893653;74;86339;-77
2022/04/20 16:40:26;;;;;;;14.33;13.43;;;;;;;17.23;100.00;101395.42;1865902;75;86359;-73
2022/04/20 16:46:10;;;;;;;15.07;13.90;;;;;;;16.97;100.00;101397.98;1943341;71;39505;-74
2022/04/20 16:51:58;;;;;;;14.33;13.03;;;;;;;16.89;100.00;101387.50;1831430;76;86086;-74
2022/04/20 17:00:58;;;;;;;15.37;14.20;;;;;;;16.87;100.00;101385.56;1828501;76;86401;-76
2022/04/20 17:06:45;;;;;;;14.77;13.87;;;;;;;16.70;100.00;101389.02;1872194;75;86429;-76
2022/04/20 17:12:29;;;;;;;15.53;14.43;;;;;;;16.59;100.00;101389.56;1805091;77;85492;-77
2022/04/20 17:18:14;;;;;;;15.07;13.97;;;;;;;16.51;100.00;101390.26;1975944;71;39709;-76
2022/04/20 17:30:00;;;;;;;14.93;13.83;;;;;;;16.22;100.00;101377.92;1809819;78;84896;-75
2022/04/20 17:41:47;;;;;;;14.30;13.20;;;;;;;16.19;100.00;101389.20;1809423;78;86198;-74
2022/04/20 17:47:32;;;;;;;14.10;13.10;;;;;;;16.14;100.00;101389.28;1843853;76;85359;-78
2022/04/20 17:53:16;;;;;;;13.80;12.80;;;;;;;16.10;100.00;101389.64;1946289;72;85400;-74
2022/04/20 17:59:01;;;;;;;13.43;12.60;;;;;;;15.99;100.00;101383.15;1840366;76;86016;-74
2022/04/20 18:04:46;;;;;;;14.53;13.47;;;;;;;15.80;100.00;101390.20;1821572;76;85946;-75
2022/04/20 18:10:31;;;;;;;13.40;12.50;;;;;;;15.87;100.00;101393.45;1808271;76;85550;-73
2022/04/20 18:16:18;;;;;;;12.37;11.57;;;;;;;15.71;100.00;101396.23;1866721;76;86436;-71
2022/04/20 18:22:05;;;;;;;11.83;11.20;;;;;;;15.74;100.00;101397.88;1985355;71;39538;-71
2022/04/20 18:27:50;;;;;;;12.43;11.73;;;;;;;15.54;100.00;101398.77;1881167;75;86133;-74
2022/04/20 18:36:50;;;;;;;11.70;11.20;;;;;;;15.51;100.00;101395.19;1881808;74;86700;-72
2022/04/20 18:42:34;;;;;;;11.20;10.57;;;;;;;15.38;100.00;101403.20;1882584;75;86007;-73
2022/04/20 18:48:18;;;;;;;11.17;10.67;;;;;;;15.30;100.00;101398.85;1919709;72;85693;-73
2022/04/20 19:00:07;;;;;;;10.50;10.00;;;;;;;15.08;100.00;101397.22;1987974;71;39645;-73
2022/04/20 19:05:52;;;;;;;11.30;10.70;;;;;;;14.95;100.00;101393.21;1848393;76;86289;-73
2022/04/20 19:11:36;;;;;;;11.20;10.70;;;;;;;14.91;100.00;101391.59;1879397;73;86319;-73
2022/04/20 19:17:20;;;;;;;10.80;10.30;;;;;;;14.88;100.00;101392.76;1920876;73;86324;-72
2022/04/20 19:23:05;;;;;;;11.10;10.50;;;;;;;14.53;100.00;101403.28;1931994;71;39544;-74
2022/04/20 19:28:50;;;;;;;11.23;10.73;;;;;;;14.26;100.00;101414.17;1848520;76;86335;-72
2022/04/20 19:34:32;;;;;;;11.30;10.87;;;;;;;14.01;100.00;101419.47;1886105;74;85635;-74
2022/04/20 19:40:15;;;;;;;12.20;11.30;;;;;;;13.99;100.00;101418.11;1948513;73;85525;-71
2022/04/20 19:46:03;;;;;;;11.57;10.87;;;;;;;14.03;100.00;101417.78;1983460;69;85784;-73
2022/04/20 19:51:48;;;;;;;11.10;10.50;;;;;;;13.89;100.00;101425.17;1890595;74;86708;-73
2022/04/20 19:57:37;;;;;;;12.27;11.40;;;;;;;13.80;100.00;101419.95;1879169;75;86687;-74
2022/04/20 20:03:27;;;;;;;11.53;11.03;;;;;;;13.53;100.00;101423.23;1910884;72;85495;-73
2022/04/20 20:09:17;;;;;;;12.03;11.43;;;;;;;13.53;100.00;101420.45;1982505;71;40434;-73
2022/04/20 20:15:02;;;;;;;12.70;12.00;;;;;;;13.46;100.00;101416.61;1813403;78;86269;-73
2022/04/20 20:20:47;;;;;;;12.73;12.13;;;;;;;13.46;100.00;101422.74;1821798;76;85428;-71
2022/04/20 20:32:39;;;;;;;15.10;14.00;;;;;;;13.23;100.00;101430.70;1878997;76;86096;-73
2022/04/20 20:38:25;;;;;;;14.97;13.90;;;;;;;13.03;100.00;101425.23;1914493;74;86199;-71
2022/04/20 20:44:16;;;;;;;15.50;14.40;;;;;;;12.86;100.00;101416.95;1981088;71;39682;-74
2022/04/20 20:56:06;;;;;;;15.93;14.83;;;;;;;12.65;100.00;101425.98;1971842;71;39746;-76
2022/04/20 21:01:52;;;;;;;16.70;15.43;;;;;;;12.78;100.00;101421.19;1886613;74;86584;-74
2022/04/20 21:07:36;;;;;;;16.10;14.90;;;;;;;12.73;100.00;101419.80;1884714;75;85639;-73
2022/04/20 21:13:23;;;;;;;16.40;15.20;;;;;;;12.63;100.00;101422.07;1918324;74;86301;-75
2022/04/20 21:19:07;;;;;;;16.47;15.27;;;;;;;12.43;100.00;101420.77;1980001;71;39600;-74
2022/04/20 21:24:54;;;;;;;15.97;14.93;;;;;;;12.32;100.00;101418.55;1837437;76;86265;-72
2022/04/20 21:30:39;;;;;;;16.17;15.07;;;;;;;12.29;100.00;101428.04;1899873;73;86091;-74
2022/04/20 21:36:24;;;;;;;16.80;15.50;;;;;;;11.74;100.00;101432.58;1904543;72;85502;-73
2022/04/20 21:42:11;;;;;;;16.43;15.27;;;;;;;11.56;100.00;101430.31;1983454;71;39641;-72
2022/04/20 21:47:56;;;;;;;15.80;14.90;;;;;;;11.37;100.00;101431.44;1847649;75;87166;-79
2022/04/20 21:53:40;;;;;;;15.03;14.13;;;;;;;11.18;100.00;101423.33;1892073;74;86061;-79
2022/04/20 21:59:26;;;;;;;15.27;14.37;;;;;;;11.32;100.00;101426.41;1801973;77;86198;-79
2022/04/20 22:17:20;;;;;;;15.53;14.60;;;;;;;10.92;100.00;101434.94;1926928;73;86455;-75
2022/04/20 22:23:05;;;;;;;15.60;14.60;;;;;;;10.94;100.00;101434.13;1985272;71;40270;-77
2022/04/20 22:28:50;;;;;;;17.80;16.40;;;;;;;11.10;100.00;101435.54;1846143;76;86510;-77
2022/04/20 22:34:35;;;;;;;16.03;14.97;;;;;;;10.99;100.00;101435.25;1871579;75;85976;-78
2022/04/20 22:40:20;;;;;;;16.00;15.10;;;;;;;11.02;100.00;101434.69;1908805;73;86317;-80
2022/04/20 22:46:05;;;;;;;17.10;16.00;;;;;;;10.60;100.00;101434.27;1976984;71;39818;-79
2022/04/20 22:51:51;;;;;;;17.40;16.20;;;;;;;10.96;100.00;101426.33;1888547;74;85460;-78
2022/04/20 22:57:36;;;;;;;17.60;16.30;;;;;;;10.88;100.00;101426.86;1925362;73;86155;-79
2022/04/20 23:03:19;;;;;;;16.80;15.60;;;;;;;10.47;100.00;101426.44;1914183;74;85291;-78
2022/04/20 23:09:04;;;;;;;17.63;16.60;;;;;;;10.49;100.00;101418.65;1959735;71;39610;-80
2022/04/20 23:14:49;;;;;;;16.43;15.43;;;;;;;10.56;100.00;101414.25;1882057;74;85476;-74
2022/04/20 23:20:33;;;;;;;19.53;18.17;;;;;;;10.52;100.00;101407.02;1887625;75;86428;-75
2022/04/20 23:32:19;;;;;;;19.70;18.47;;;;;;;10.37;100.00;101411.94;1923859;72;86617;-74
2022/04/20 23:41:10;;;;;;;21.90;20.50;;;;;;;9.93;100.00;101408.59;1981607;69;39558;-74
2022/04/20 23:43:41;;;;;;;21.20;19.90;;;;;;;9.91;100.00;101416.91;1922385;73;934854;-80
2022/04/20 23:46:11;;;;;;;21.73;20.52;;;;;;;10.04;100.00;101413.67;1853499;75;938770;-79
2022/04/20 23:48:41;;;;;;;22.20;20.90;;;;;;;9.90;100.00;101411.06;1865212;75;938980;-80
2022/04/20 23:51:11;;;;;;;21.90;20.60;;;;;;;9.81;100.00;101417.66;1912906;73;938071;-80
2022/04/20 23:53:42;;;;;;;22.07;20.77;;;;;;;9.90;100.00;101414.68;1924373;73;935521;-80
2022/04/20 23:59:29;;;;;;;21.97;20.50;;;;;;;9.63;100.00;101410.33;1803514;77;86003;-75
